createdAt,value
2022-09-12T13:08:10.588Z,40.10
2022-09-12T13:10:37.005Z,39.40
2022-09-12T13:13:03.504Z,38.70
2022-09-12T13:15:30.055Z,37.40
2022-09-12T13:17:56.560Z,37.60
2022-09-12T13:20:30.238Z,37.10
2022-09-12T13:22:59.475Z,36.40
2022-09-12T13:25:25.883Z,35.60
2022-09-12T13:27:52.300Z,35.00
2022-09-12T13:30:18.724Z,35.40
2022-09-12T13:32:45.192Z,35.30
2022-09-12T13:35:11.668Z,35.20
2022-09-12T13:37:38.065Z,34.40
2022-09-12T13:40:04.595Z,34.00
2022-09-12T13:42:31.056Z,34.10
2022-09-12T13:44:57.495Z,32.60
2022-09-12T13:47:24.133Z,32.00
2022-09-12T13:49:50.558Z,31.90
2022-09-12T13:52:16.962Z,31.00
2022-09-12T13:54:43.462Z,30.40
2022-09-12T13:57:09.851Z,30.50
2022-09-12T13:59:36.302Z,30.40
2022-09-12T14:02:02.764Z,29.90
2022-09-12T14:04:29.225Z,29.40
2022-09-12T14:06:55.732Z,29.20
2022-09-12T14:09:25.135Z,29.40
2022-09-12T14:11:51.885Z,29.50
2022-09-12T14:14:18.313Z,29.50
2022-09-12T14:16:44.713Z,29.30
2022-09-12T14:19:11.110Z,29.30
2022-09-12T14:21:37.576Z,29.20
2022-09-12T14:24:03.965Z,29.10
2022-09-12T14:26:30.421Z,29.10
2022-09-12T14:28:56.796Z,28.50
2022-09-12T14:31:23.379Z,28.50
2022-09-12T14:33:49.827Z,28.10
2022-09-12T14:36:16.233Z,28.40
2022-09-12T14:38:42.731Z,28.70
2022-09-12T14:41:09.188Z,29.00
2022-09-12T14:43:35.578Z,29.10
2022-09-12T14:46:02.033Z,29.50
2022-09-12T14:48:28.495Z,29.60
2022-09-12T14:50:54.918Z,29.70
2022-09-12T14:53:21.340Z,29.80
2022-09-12T14:55:47.731Z,30.00
2022-09-12T14:58:14.110Z,30.00
2022-09-12T15:00:40.557Z,30.50
2022-09-12T15:03:06.956Z,30.50
2022-09-12T15:05:33.353Z,30.70
2022-09-12T15:07:59.754Z,30.70
2022-09-12T15:10:26.150Z,30.50
2022-09-12T15:12:52.555Z,30.60
2022-09-12T15:15:18.944Z,30.60
2022-09-12T15:17:45.344Z,30.50
2022-09-12T15:20:11.727Z,30.00
2022-09-12T15:22:38.147Z,29.70
2022-09-12T15:25:04.551Z,29.40
2022-09-12T15:27:30.941Z,29.20
2022-09-12T15:29:57.322Z,29.00
2022-09-12T15:32:23.723Z,28.60
2022-09-12T15:34:50.099Z,28.70
2022-09-12T15:37:16.501Z,28.70
2022-09-12T15:39:42.917Z,28.80
2022-09-12T15:42:09.333Z,28.60
2022-09-12T15:44:35.791Z,28.70
2022-09-12T15:47:02.200Z,29.00
2022-09-12T15:49:28.574Z,29.10
2022-09-12T15:51:54.972Z,29.10
2022-09-12T15:54:21.370Z,28.90
2022-09-12T15:56:47.765Z,28.50
2022-09-12T15:59:14.291Z,28.50
2022-09-12T16:01:40.690Z,28.50
2022-09-12T16:04:07.210Z,28.50
2022-09-12T16:06:37.010Z,28.40
2022-09-12T16:09:03.913Z,28.40
2022-09-12T16:11:30.351Z,28.40
2022-09-12T16:13:56.738Z,28.70
2022-09-12T16:16:23.200Z,29.00
2022-09-12T16:18:49.599Z,28.90
2022-09-12T16:21:16.170Z,28.90
2022-09-12T16:23:42.707Z,28.80
2022-09-12T16:26:09.096Z,28.80
2022-09-12T16:28:35.569Z,28.80
2022-09-12T16:31:02.013Z,29.00
2022-09-12T16:33:28.466Z,29.20
2022-09-12T16:35:54.876Z,29.20
2022-09-12T16:38:21.297Z,29.30
2022-09-12T16:40:47.704Z,29.40
2022-09-12T16:43:14.103Z,30.00
2022-09-12T16:45:40.499Z,30.00
2022-09-12T16:48:06.939Z,30.30
2022-09-12T16:50:33.332Z,30.60
2022-09-12T16:52:59.714Z,30.80
2022-09-12T16:55:26.189Z,31.00
2022-09-12T16:57:52.714Z,31.30
2022-09-12T17:00:19.101Z,31.70
2022-09-12T17:02:45.547Z,32.00
2022-09-12T17:05:11.989Z,32.40
2022-09-12T17:07:38.384Z,32.80
2022-09-12T17:10:04.817Z,33.30
2022-09-12T17:12:31.218Z,33.90
2022-09-12T17:14:57.604Z,34.40
2022-09-12T17:17:23.998Z,35.30
2022-09-12T17:19:50.385Z,36.40
2022-09-12T17:22:16.854Z,37.70
2022-09-12T17:24:43.243Z,39.60
2022-09-12T17:27:09.644Z,41.70
2022-09-12T17:29:36.049Z,43.10
2022-09-12T17:32:02.425Z,44.60
2022-09-12T17:34:28.824Z,46.10
2022-09-12T17:36:55.235Z,47.70
2022-09-12T17:39:21.622Z,49.50
2022-09-12T17:41:48.014Z,51.00
2022-09-12T17:44:14.393Z,52.60
2022-09-12T17:46:40.873Z,53.80
2022-09-12T17:49:07.322Z,54.60
2022-09-12T17:51:33.740Z,55.60
2022-09-12T17:54:00.178Z,56.30
2022-09-12T17:56:26.628Z,57.50
2022-09-12T17:58:53.017Z,58.10
2022-09-12T18:01:19.483Z,59.30
2022-09-12T18:03:46.018Z,60.10
2022-09-12T18:06:12.425Z,60.80
2022-09-12T18:08:38.814Z,61.60
2022-09-12T18:11:05.192Z,62.30
2022-09-12T18:13:31.590Z,63.10
2022-09-12T18:15:58.058Z,64.30
2022-09-12T18:18:24.465Z,64.00
2022-09-12T18:20:50.857Z,64.80
2022-09-12T18:23:17.241Z,65.30
2022-09-12T18:25:43.628Z,65.80
2022-09-12T18:28:10.024Z,67.20
2022-09-12T18:30:36.413Z,67.20
2022-09-12T18:33:02.796Z,68.30
2022-09-12T18:35:29.182Z,68.70
2022-09-12T18:37:55.567Z,69.20
2022-09-12T18:40:22.034Z,69.90
2022-09-12T18:42:48.499Z,70.40
2022-09-12T18:45:14.925Z,71.00
2022-09-12T18:47:41.346Z,71.30
2022-09-12T18:50:07.735Z,71.70
2022-09-12T18:52:34.136Z,72.40
2022-09-12T18:55:00.519Z,72.80
2022-09-12T18:57:26.954Z,73.40
2022-09-12T18:59:53.336Z,74.20
2022-09-12T19:02:19.733Z,74.60
2022-09-12T19:04:46.113Z,75.10
2022-09-12T19:07:12.521Z,75.60
2022-09-12T19:09:38.925Z,76.00
2022-09-12T19:12:05.297Z,76.60
2022-09-12T19:14:31.710Z,77.10
2022-09-12T19:16:58.106Z,77.50
2022-09-12T19:19:24.498Z,78.10
2022-09-12T19:21:50.898Z,78.30
2022-09-12T19:24:17.330Z,79.30
2022-09-12T19:26:43.746Z,79.60
2022-09-12T19:29:10.114Z,79.90
2022-09-12T19:31:36.543Z,80.50
2022-09-12T19:34:03.030Z,81.30
2022-09-12T19:36:46.657Z,81.40
2022-09-12T19:39:13.652Z,81.70
2022-09-12T19:41:40.079Z,82.20
2022-09-12T19:44:06.465Z,83.00
2022-09-12T19:46:32.934Z,83.30
2022-09-12T19:48:59.388Z,83.60
2022-09-12T19:51:25.838Z,84.00
2022-09-12T19:53:52.251Z,84.40
2022-09-12T19:56:18.625Z,84.90
2022-09-12T19:58:45.050Z,85.50
2022-09-12T20:01:11.460Z,86.00
2022-09-12T20:03:37.930Z,86.50
2022-09-12T20:06:04.316Z,87.10
2022-09-12T20:08:30.734Z,87.40
2022-09-12T20:10:57.344Z,88.10
2022-09-12T20:13:23.776Z,88.90
2022-09-12T20:15:50.218Z,89.20
2022-09-12T20:18:16.621Z,90.20
2022-09-12T20:20:43.006Z,90.10
2022-09-12T20:23:09.408Z,90.70
2022-09-12T20:25:35.818Z,91.20
2022-09-12T20:28:02.210Z,91.60
2022-09-12T20:30:28.607Z,92.00
2022-09-12T20:32:55.000Z,92.40
2022-09-12T20:35:21.408Z,92.90
2022-09-12T20:37:47.780Z,93.60
2022-09-12T20:40:14.218Z,94.00
2022-09-12T20:42:40.625Z,94.60
2022-09-12T20:45:07.025Z,94.90
2022-09-12T20:47:33.442Z,95.40
2022-09-12T20:49:59.820Z,96.00
2022-09-12T20:52:26.244Z,96.50
2022-09-12T20:54:52.634Z,96.90
2022-09-12T20:57:19.009Z,97.40
2022-09-12T20:59:45.401Z,97.70
2022-09-12T21:10:13.198Z,99.80
2022-09-12T22:06:32.883Z,99.90
2022-09-12T22:33:12.084Z,99.90
2022-09-12T22:41:08.343Z,99.90
2022-09-12T22:46:17.803Z,99.90
2022-09-12T22:48:45.589Z,99.90
2022-09-12T22:51:12.492Z,99.90
2022-09-12T22:56:29.276Z,99.90
2022-09-12T23:01:38.847Z,99.90
2022-09-12T23:04:06.816Z,99.90
2022-09-12T23:06:34.482Z,99.90
2022-09-12T23:11:41.793Z,99.90
2022-09-12T23:14:14.378Z,99.90
2022-09-12T23:22:02.325Z,99.90
2022-09-12T23:24:32.462Z,99.90
2022-09-12T23:27:03.351Z,99.90
2022-09-12T23:34:52.377Z,99.90
2022-09-12T23:37:22.778Z,99.90
2022-09-12T23:42:41.243Z,99.90
2022-09-12T23:47:49.816Z,99.90
2022-09-12T23:50:17.568Z,99.90
2022-09-12T23:55:33.888Z,99.90
2022-09-12T23:58:05.727Z,99.90
